Time;durP1;ratioP1;P1;durP2;ratioP2;P2;SDS_P1;SDS_P2;PMS_P1;PMS_P2;Temp;Humidity;BMP_temperature;BMP_pressure;BME280_temperature;BME280_humidity;BME280_pressure;Samples;Min_cycle;Max_cycle;Signal;HPM_P1;HPM_P2
2023/07/23 00:02:05;;;;;;;8.93;4.93;;;;;;;17.68;100.00;100265.88;5150350;28;20030;-75
2023/07/23 00:04:36;;;;;;;6.78;4.28;;;;;;;17.78;100.00;100279.28;5149781;28;20111;-76
2023/07/23 00:07:06;;;;;;;7.75;4.70;;;;;;;17.70;100.00;100279.00;5144683;28;20627;-76
2023/07/23 00:09:36;;;;;;;7.75;4.63;;;;;;;17.68;100.00;100272.97;5157634;28;20041;-75
2023/07/23 00:12:07;;;;;;;9.63;4.95;;;;;;;17.62;100.00;100274.25;5154528;28;20527;-76
2023/07/23 00:14:37;;;;;;;7.80;5.35;;;;;;;17.62;100.00;100268.13;5149233;28;20035;-76
2023/07/23 00:17:08;;;;;;;7.47;5.07;;;;;;;17.46;100.00;100264.84;5152233;28;20030;-76
2023/07/23 00:19:38;;;;;;;7.25;4.78;;;;;;;17.44;100.00;100264.06;5150948;28;20031;-76
2023/07/23 00:22:08;;;;;;;6.78;4.65;;;;;;;17.48;100.00;100260.28;5151588;28;20161;-76
2023/07/23 00:24:38;;;;;;;7.38;4.90;;;;;;;17.51;100.00;100260.91;5154650;28;20037;-76
2023/07/23 00:27:10;;;;;;;10.55;5.28;;;;;;;17.46;100.00;100256.91;5151353;28;20026;-76
2023/07/23 00:29:41;;;;;;;8.35;5.00;;;;;;;17.51;100.00;100260.06;5148512;28;20038;-76
2023/07/23 00:32:11;;;;;;;10.00;5.80;;;;;;;17.33;100.00;100261.31;5151036;28;20030;-76
2023/07/23 00:34:41;;;;;;;8.48;5.60;;;;;;;17.27;100.00;100257.28;5152472;28;20054;-76
2023/07/23 00:37:12;;;;;;;8.30;5.13;;;;;;;17.17;100.00;100250.91;5151561;28;20322;-75
2023/07/23 00:39:42;;;;;;;12.98;5.63;;;;;;;17.29;100.00;100250.09;5153181;28;20435;-76
2023/07/23 00:42:12;;;;;;;8.02;5.20;;;;;;;17.02;100.00;100248.47;5152046;28;20027;-76
2023/07/23 00:44:43;;;;;;;9.55;5.57;;;;;;;16.97;100.00;100246.13;5150463;28;20750;-75
2023/07/23 00:47:13;;;;;;;8.57;5.53;;;;;;;16.96;100.00;100251.53;5150819;28;20030;-74
2023/07/23 00:49:44;;;;;;;9.75;4.93;;;;;;;17.10;100.00;100251.44;5155281;28;20026;-76
2023/07/23 00:52:14;;;;;;;7.70;5.10;;;;;;;17.19;100.00;100249.03;5149000;28;20041;-76
2023/07/23 00:54:45;;;;;;;8.52;5.38;;;;;;;17.03;100.00;100245.75;5152586;28;20023;-76
2023/07/23 00:57:15;;;;;;;7.70;5.15;;;;;;;16.89;100.00;100239.66;5152235;28;20041;-76
2023/07/23 00:59:46;;;;;;;8.52;5.47;;;;;;;16.79;100.00;100233.31;5157594;28;20064;-76
2023/07/23 01:02:16;;;;;;;9.00;5.35;;;;;;;16.90;100.00;100236.06;5150997;28;20029;-76
2023/07/23 01:04:46;;;;;;;8.98;5.53;;;;;;;16.75;100.00;100239.72;5151867;28;20058;-73
2023/07/23 01:07:17;;;;;;;8.85;4.68;;;;;;;16.78;100.00;100236.91;5150096;28;23093;-76
2023/07/23 01:09:49;;;;;;;7.82;5.40;;;;;;;16.78;100.00;100229.81;5147291;28;20035;-74
2023/07/23 01:12:20;;;;;;;9.32;5.40;;;;;;;16.65;100.00;100225.47;5147620;28;20031;-76
2023/07/23 01:14:50;;;;;;;7.93;5.38;;;;;;;16.64;100.00;100218.50;5164383;28;20022;-76
2023/07/23 01:17:21;;;;;;;7.57;5.07;;;;;;;16.44;100.00;100221.59;5177759;28;20023;-77
2023/07/23 01:20:04;;;;;;;10.27;5.07;;;;;;;16.57;100.00;100221.63;5153980;28;20369;-77
2023/07/23 01:22:36;;;;;;;8.27;4.72;;;;;;;16.57;100.00;100217.19;5160191;28;20087;-76
2023/07/23 01:25:06;;;;;;;8.32;5.38;;;;;;;16.52;100.00;100207.91;5147845;28;20046;-76
2023/07/23 01:27:37;;;;;;;8.75;5.18;;;;;;;16.55;100.00;100208.53;5162399;28;20033;-76
2023/07/23 01:30:10;;;;;;;8.15;5.07;;;;;;;16.62;100.00;100206.34;5151077;28;20045;-77
2023/07/23 01:32:41;;;;;;;7.75;4.93;;;;;;;16.69;100.00;100211.13;5164701;28;20563;-77
2023/07/23 01:35:14;;;;;;;7.20;4.70;;;;;;;16.56;100.00;100204.94;5156888;28;20129;-76
2023/07/23 01:37:47;;;;;;;11.23;5.07;;;;;;;16.62;100.00;100201.94;5149258;28;20480;-77
2023/07/23 01:40:17;;;;;;;8.10;4.70;;;;;;;16.67;100.00;100197.19;5148583;28;20480;-77
2023/07/23 01:42:48;;;;;;;9.77;5.32;;;;;;;16.51;100.00;100198.28;5148491;28;20113;-73
2023/07/23 01:45:18;;;;;;;10.30;5.40;;;;;;;16.33;100.00;100189.75;5152172;28;20029;-77
2023/07/23 01:47:48;;;;;;;11.25;5.60;;;;;;;16.38;100.00;100192.13;5152997;28;20030;-74
2023/07/23 01:50:19;;;;;;;9.52;5.75;;;;;;;16.50;100.00;100180.75;5150835;28;20026;-77
2023/07/23 01:52:49;;;;;;;9.65;5.53;;;;;;;16.39;100.00;100178.81;5153972;28;20123;-75
2023/07/23 01:55:19;;;;;;;8.80;5.60;;;;;;;16.34;100.00;100175.63;5153637;28;20019;-76
2023/07/23 01:57:49;;;;;;;9.82;5.85;;;;;;;16.27;100.00;100171.69;5152821;28;20024;-76
2023/07/23 02:00:20;;;;;;;9.55;5.95;;;;;;;16.23;100.00;100177.28;5154558;28;20064;-77
2023/07/23 02:02:50;;;;;;;11.63;6.97;;;;;;;16.22;100.00;100160.59;5153445;28;20244;-77
2023/07/23 02:05:23;;;;;;;11.90;6.28;;;;;;;16.23;100.00;100158.81;5152316;28;20463;-76
2023/07/23 02:07:54;;;;;;;10.88;6.28;;;;;;;16.22;100.00;100163.22;5150445;28;20030;-76
2023/07/23 02:10:24;;;;;;;9.65;5.85;;;;;;;16.21;100.00;100156.25;5155210;28;20111;-76
2023/07/23 02:12:54;;;;;;;10.00;5.80;;;;;;;16.29;100.00;100153.97;5153453;28;20105;-76
2023/07/23 02:15:25;;;;;;;9.55;5.85;;;;;;;16.31;100.00;100153.88;5179089;28;20031;-76
2023/07/23 02:17:55;;;;;;;10.23;6.38;;;;;;;16.25;100.00;100147.19;5153101;28;20773;-77
2023/07/23 02:20:25;;;;;;;9.65;6.38;;;;;;;16.19;100.00;100142.34;5181673;28;20100;-77
2023/07/23 02:22:56;;;;;;;10.13;6.90;;;;;;;16.23;100.00;100141.19;5153462;28;20038;-76
2023/07/23 02:25:27;;;;;;;11.50;6.70;;;;;;;16.22;100.00;100133.38;5151159;28;20491;-76
2023/07/23 02:27:57;;;;;;;10.38;6.32;;;;;;;16.26;100.00;100125.19;5173739;28;20487;-77
2023/07/23 02:30:27;;;;;;;12.45;6.95;;;;;;;16.27;100.00;100129.50;5154121;28;20036;-76
2023/07/23 02:32:57;;;;;;;10.68;6.40;;;;;;;16.22;100.00;100139.47;5153511;28;20079;-77
2023/07/23 02:35:28;;;;;;;9.55;6.50;;;;;;;16.29;100.00;100127.59;5154663;28;20026;-76
2023/07/23 02:37:58;;;;;;;11.43;7.72;;;;;;;16.19;100.00;100130.97;5188679;28;20022;-77
2023/07/23 02:40:33;;;;;;;11.90;6.72;;;;;;;16.22;100.00;100126.31;5183577;28;20087;-75
2023/07/23 02:43:03;;;;;;;12.37;7.13;;;;;;;16.13;100.00;100134.81;5153312;28;20034;-76
2023/07/23 02:45:33;;;;;;;13.48;6.82;;;;;;;16.10;100.00;100126.25;5153986;28;20273;-77
2023/07/23 02:48:05;;;;;;;10.77;6.35;;;;;;;16.13;100.00;100126.06;5153684;28;20026;-77
2023/07/23 02:50:35;;;;;;;10.90;6.82;;;;;;;16.05;100.00;100118.66;5164876;28;20034;-76
2023/07/23 02:53:06;;;;;;;12.52;6.93;;;;;;;16.04;100.00;100114.31;5151286;28;20480;-76
2023/07/23 02:55:36;;;;;;;12.98;6.88;;;;;;;16.10;100.00;100116.56;5148819;28;20113;-76
2023/07/23 02:58:06;;;;;;;11.65;7.07;;;;;;;16.08;100.00;100117.63;5150699;28;20117;-76
2023/07/23 03:00:40;;;;;;;10.77;6.70;;;;;;;16.19;100.00;100115.13;5175823;28;20033;-76
2023/07/23 03:03:10;;;;;;;11.10;6.30;;;;;;;16.20;100.00;100117.66;5152697;28;20321;-75
2023/07/23 03:05:45;;;;;;;11.10;6.13;;;;;;;16.12;100.00;100119.09;5153696;28;20083;-77
2023/07/23 03:08:15;;;;;;;13.90;6.95;;;;;;;16.11;100.00;100120.91;5152375;28;20034;-76
2023/07/23 03:10:45;;;;;;;10.52;6.47;;;;;;;16.13;100.00;100119.00;5151395;28;20027;-76
2023/07/23 03:13:15;;;;;;;12.25;6.82;;;;;;;16.02;100.00;100113.56;5144480;28;20031;-77
2023/07/23 03:15:46;;;;;;;10.38;6.43;;;;;;;16.00;100.00;100111.97;5149708;28;20030;-77
2023/07/23 03:18:16;;;;;;;9.52;6.07;;;;;;;15.96;100.00;100105.22;5152111;28;20022;-76
2023/07/23 03:20:46;;;;;;;9.35;6.40;;;;;;;15.89;100.00;100106.56;5151382;28;20037;-76
2023/07/23 03:23:16;;;;;;;11.88;6.63;;;;;;;15.96;100.00;100100.81;5149570;28;20067;-76
2023/07/23 03:25:47;;;;;;;8.95;6.18;;;;;;;15.85;100.00;100105.09;5151346;28;20030;-77
2023/07/23 03:28:17;;;;;;;10.63;5.72;;;;;;;15.87;100.00;100095.28;5147211;28;20026;-76
2023/07/23 03:30:48;;;;;;;10.60;6.40;;;;;;;15.84;100.00;100093.69;5152438;28;20049;-73
2023/07/23 03:33:18;;;;;;;11.65;6.38;;;;;;;15.93;100.00;100087.84;5153908;28;20058;-76
2023/07/23 03:35:48;;;;;;;10.95;6.95;;;;;;;15.92;100.00;100096.69;5152502;28;20627;-73
2023/07/23 03:38:18;;;;;;;11.02;6.60;;;;;;;15.98;100.00;100090.16;5155574;28;20037;-76
2023/07/23 03:40:49;;;;;;;11.98;6.13;;;;;;;16.03;100.00;100090.72;5156019;28;20045;-74
2023/07/23 03:43:19;;;;;;;9.95;6.50;;;;;;;15.97;100.00;100089.31;5156555;28;20034;-76
2023/07/23 03:45:49;;;;;;;12.35;6.38;;;;;;;15.94;100.00;100089.53;5155741;28;20022;-74
2023/07/23 03:48:19;;;;;;;11.85;6.90;;;;;;;15.96;100.00;100081.50;5156972;28;20040;-76
2023/07/23 03:50:50;;;;;;;12.52;7.57;;;;;;;16.00;100.00;100078.56;5155941;28;20026;-74
2023/07/23 03:53:20;;;;;;;12.13;7.32;;;;;;;15.89;100.00;100075.78;5159014;28;20519;-76
2023/07/23 03:55:50;;;;;;;13.38;7.88;;;;;;;15.91;100.00;100073.88;5155412;28;20030;-75
2023/07/23 03:58:20;;;;;;;14.05;7.60;;;;;;;15.75;100.00;100073.22;5156268;28;20709;-76
2023/07/23 04:00:51;;;;;;;13.25;7.40;;;;;;;15.83;100.00;100078.81;5155318;28;20132;-77
2023/07/23 04:03:21;;;;;;;17.15;7.97;;;;;;;15.77;100.00;100087.13;5155440;28;20037;-77
2023/07/23 04:05:51;;;;;;;13.33;7.93;;;;;;;15.84;100.00;100072.59;5152603;28;20113;-77
2023/07/23 04:08:22;;;;;;;14.02;7.97;;;;;;;15.77;100.00;100066.06;5160584;28;20278;-77
2023/07/23 04:10:55;;;;;;;12.13;7.28;;;;;;;15.95;100.00;100074.53;5156574;28;20445;-76
2023/07/23 04:13:25;;;;;;;13.45;7.47;;;;;;;15.97;100.00;100068.22;5156494;28;20029;-76
2023/07/23 04:15:55;;;;;;;13.15;7.97;;;;;;;15.88;100.00;100068.00;5155297;28;20030;-77
2023/07/23 04:18:45;;;;;;;13.48;7.30;;;;;;;15.89;100.00;100059.97;5157206;28;20120;-76
2023/07/23 04:21:18;;;;;;;12.82;7.55;;;;;;;15.94;100.00;100062.31;5149236;28;20503;-74
2023/07/23 04:23:50;;;;;;;14.30;7.45;;;;;;;15.88;100.00;100055.63;5152401;28;20037;-75
2023/07/23 04:26:21;;;;;;;15.93;7.95;;;;;;;15.88;100.00;100046.91;5154222;28;20052;-76
2023/07/23 04:28:52;;;;;;;16.92;8.00;;;;;;;15.94;100.00;100049.13;5154892;28;20030;-76
2023/07/23 04:31:22;;;;;;;14.90;7.75;;;;;;;15.95;100.00;100042.91;5155254;28;20075;-77
2023/07/23 04:33:53;;;;;;;13.40;7.68;;;;;;;15.97;100.00;100036.59;5152600;28;20029;-77
2023/07/23 04:36:23;;;;;;;17.33;8.27;;;;;;;15.97;100.00;100036.59;5155591;28;20034;-76
2023/07/23 04:38:54;;;;;;;15.18;8.00;;;;;;;15.91;100.00;100042.25;5160444;28;20029;-76
2023/07/23 04:41:24;;;;;;;12.18;7.47;;;;;;;15.86;100.00;100018.00;5155678;28;20041;-76
2023/07/23 04:43:54;;;;;;;13.88;7.57;;;;;;;15.92;100.00;100016.75;5154291;28;20076;-76
2023/07/23 04:46:25;;;;;;;13.18;7.90;;;;;;;16.01;100.00;100017.00;5155257;28;20054;-76
2023/07/23 04:48:55;;;;;;;13.18;7.45;;;;;;;16.16;100.00;100009.84;5152914;28;20038;-76
2023/07/23 04:51:25;;;;;;;13.40;6.85;;;;;;;16.15;100.00;100014.28;5155082;28;20475;-77
2023/07/23 04:53:55;;;;;;;12.45;7.03;;;;;;;16.16;100.00;100009.84;5154570;28;20064;-76
2023/07/23 04:56:26;;;;;;;13.15;7.55;;;;;;;16.14;100.00;100017.88;5156602;28;20030;-77
2023/07/23 04:58:56;;;;;;;16.52;8.10;;;;;;;16.20;100.00;100006.91;5152076;28;20034;-76
2023/07/23 05:01:26;;;;;;;14.65;7.13;;;;;;;16.28;100.00;100011.66;5156511;28;20476;-77
2023/07/23 05:03:57;;;;;;;12.75;6.80;;;;;;;16.29;100.00;100014.22;5152084;28;20026;-77
2023/07/23 05:06:27;;;;;;;12.55;6.88;;;;;;;16.32;100.00;100003.44;5152254;28;20041;-76
2023/07/23 05:08:57;;;;;;;12.48;6.85;;;;;;;16.36;100.00;100012.88;5167770;28;20030;-77
2023/07/23 05:11:28;;;;;;;12.23;6.72;;;;;;;16.43;100.00;99998.31;5156531;28;20117;-76
2023/07/23 05:13:58;;;;;;;12.03;6.50;;;;;;;16.34;100.00;100009.47;5154485;28;20017;-77
2023/07/23 05:16:29;;;;;;;9.30;6.32;;;;;;;16.43;100.00;99993.06;5154876;28;20281;-77
2023/07/23 05:18:59;;;;;;;12.75;6.72;;;;;;;16.31;100.00;99983.28;5148111;28;20031;-77
2023/07/23 05:21:30;;;;;;;12.70;6.90;;;;;;;16.37;100.00;99992.63;5153458;28;20107;-75
2023/07/23 05:24:01;;;;;;;13.05;6.80;;;;;;;16.48;100.00;99990.94;5154382;28;20345;-75
2023/07/23 05:26:32;;;;;;;14.50;7.10;;;;;;;16.52;100.00;99991.56;5154184;28;20038;-75
2023/07/23 05:29:02;;;;;;;11.30;6.50;;;;;;;16.47;100.00;99994.53;5154332;28;20583;-76
2023/07/23 05:31:32;;;;;;;12.10;6.53;;;;;;;16.41;100.00;99988.81;5154127;28;20033;-76
2023/07/23 05:34:03;;;;;;;13.40;6.25;;;;;;;16.38;100.00;99981.94;5154430;28;20054;-77
2023/07/23 05:36:33;;;;;;;11.02;6.20;;;;;;;16.38;100.00;99978.47;5154908;28;20042;-73
2023/07/23 05:39:03;;;;;;;11.57;6.00;;;;;;;16.56;100.00;99982.50;5154177;28;20508;-77
2023/07/23 05:41:33;;;;;;;9.45;5.53;;;;;;;16.48;100.00;99983.00;5154336;28;20033;-77
2023/07/23 05:44:04;;;;;;;13.13;6.30;;;;;;;16.59;100.00;99969.91;5152883;28;20129;-76
2023/07/23 05:46:34;;;;;;;12.70;5.65;;;;;;;16.76;100.00;99968.75;5153587;28;20557;-75
2023/07/23 05:49:04;;;;;;;12.88;5.72;;;;;;;16.74;100.00;99974.13;5154402;28;20030;-77
2023/07/23 05:51:35;;;;;;;11.25;5.95;;;;;;;16.81;100.00;99970.13;5151177;28;20022;-77
2023/07/23 05:54:05;;;;;;;11.00;5.70;;;;;;;16.98;100.00;99964.47;5164767;28;20392;-77
2023/07/23 05:56:35;;;;;;;10.80;6.03;;;;;;;16.96;100.00;99963.75;5152512;28;20038;-76
2023/07/23 05:59:06;;;;;;;10.95;5.45;;;;;;;16.90;100.00;99962.38;5153009;28;20395;-76
2023/07/23 06:01:36;;;;;;;11.48;6.00;;;;;;;17.00;100.00;99957.28;5150445;28;20522;-76
2023/07/23 06:04:07;;;;;;;9.13;5.45;;;;;;;16.91;100.00;99957.94;5149648;28;21421;-76
2023/07/23 06:06:37;;;;;;;12.73;6.28;;;;;;;16.94;100.00;99960.38;5172043;28;20072;-77
2023/07/23 06:09:08;;;;;;;10.90;5.85;;;;;;;16.86;100.00;99954.78;5151643;28;20060;-75
2023/07/23 06:11:38;;;;;;;12.50;6.20;;;;;;;16.85;100.00;99953.97;5150496;28;20081;-76
2023/07/23 06:14:09;;;;;;;10.02;5.32;;;;;;;16.99;100.00;99955.59;5153829;28;20484;-76
2023/07/23 06:16:39;;;;;;;15.13;6.10;;;;;;;17.06;100.00;99939.22;5157738;28;20535;-76
2023/07/23 06:19:09;;;;;;;12.48;5.80;;;;;;;17.01;100.00;99938.69;5160617;28;20651;-76
2023/07/23 06:21:40;;;;;;;10.45;5.80;;;;;;;17.02;100.00;99934.25;5150464;28;20426;-76
2023/07/23 06:24:10;;;;;;;10.57;6.05;;;;;;;17.04;100.00;99932.34;5149810;28;20031;-76
2023/07/23 06:26:40;;;;;;;9.77;5.75;;;;;;;17.10;100.00;99937.19;5151626;28;20042;-76
2023/07/23 06:29:11;;;;;;;12.73;5.95;;;;;;;17.22;100.00;99925.72;5152450;28;20445;-76
2023/07/23 06:31:41;;;;;;;8.70;5.25;;;;;;;17.32;100.00;99922.31;5152557;28;20334;-77
2023/07/23 06:34:11;;;;;;;11.80;5.30;;;;;;;17.31;100.00;99920.63;5152551;28;20399;-76
2023/07/23 06:36:42;;;;;;;8.90;5.15;;;;;;;17.36;100.00;99922.97;5152952;28;20027;-76
2023/07/23 06:39:13;;;;;;;9.60;4.97;;;;;;;17.60;100.00;99911.44;5157052;28;20503;-75
2023/07/23 06:41:43;;;;;;;10.60;4.70;;;;;;;17.71;100.00;99913.25;5156496;28;20030;-77
2023/07/23 06:44:14;;;;;;;12.73;4.83;;;;;;;17.85;100.00;99905.13;5157882;28;20066;-76
2023/07/23 06:46:44;;;;;;;7.50;4.60;;;;;;;18.29;100.00;99902.59;5155834;28;20288;-75
2023/07/23 06:49:14;;;;;;;6.20;4.07;;;;;;;18.36;100.00;99890.59;5163317;28;20033;-76
2023/07/23 06:51:44;;;;;;;7.45;4.28;;;;;;;18.27;100.00;99892.16;5160133;28;20038;-76
2023/07/23 06:54:15;;;;;;;6.30;4.13;;;;;;;18.87;100.00;99888.13;5151207;28;20104;-76
2023/07/23 06:56:45;;;;;;;5.93;3.97;;;;;;;19.15;100.00;99886.75;5155975;28;20276;-77
2023/07/23 06:59:15;;;;;;;9.07;3.97;;;;;;;19.31;100.00;99888.03;5157486;28;20382;-76
2023/07/23 07:04:18;;;;;;;5.25;3.55;;;;;;;21.02;94.40;99871.31;5212909;28;20048;-75
2023/07/23 07:06:49;;;;;;;8.05;4.10;;;;;;;21.89;88.98;99865.88;5214416;28;20037;-74
2023/07/23 07:09:19;;;;;;;5.80;3.17;;;;;;;22.17;87.88;99866.81;5219237;28;20124;-75
2023/07/23 07:11:50;;;;;;;5.73;3.40;;;;;;;22.10;85.69;99871.03;5214055;28;20294;-74
2023/07/23 07:14:21;;;;;;;4.93;3.15;;;;;;;21.89;86.77;99865.06;5229955;28;20264;-75
2023/07/23 07:16:51;;;;;;;5.72;3.08;;;;;;;21.98;88.92;99864.19;5229877;28;20059;-72
2023/07/23 07:19:22;;;;;;;5.65;3.28;;;;;;;21.41;90.11;99862.38;5231896;28;20028;-74
2023/07/23 07:21:54;;;;;;;6.47;3.10;;;;;;;21.73;88.38;99855.00;5232338;28;20033;-74
2023/07/23 07:24:24;;;;;;;5.82;3.47;;;;;;;21.35;89.67;99862.09;5230452;28;20041;-75
2023/07/23 07:26:54;;;;;;;6.65;3.22;;;;;;;20.96;93.79;99852.41;5229279;28;20122;-75
2023/07/23 07:29:25;;;;;;;5.82;3.38;;;;;;;21.55;91.38;99850.50;5238105;28;20017;-75
2023/07/23 07:31:55;;;;;;;6.05;3.88;;;;;;;21.33;91.47;99861.41;5215905;28;20024;-75
2023/07/23 07:34:26;;;;;;;6.27;3.60;;;;;;;21.84;92.64;99854.00;5229901;28;20021;-75
2023/07/23 07:36:56;;;;;;;6.90;3.33;;;;;;;22.30;90.86;99841.56;5213464;28;20636;-75
2023/07/23 07:39:26;;;;;;;4.97;3.07;;;;;;;22.15;91.65;99840.34;5234417;28;20085;-74
2023/07/23 07:41:57;;;;;;;5.38;3.28;;;;;;;22.39;87.51;99845.19;5234555;28;20430;-75
2023/07/23 07:44:28;;;;;;;6.63;3.13;;;;;;;23.09;88.19;99839.03;5232605;28;20032;-74
2023/07/23 07:46:58;;;;;;;4.25;2.80;;;;;;;23.21;87.92;99832.50;5232881;28;20028;-75
2023/07/23 07:49:28;;;;;;;5.50;2.87;;;;;;;23.51;86.35;99829.44;5233500;28;20028;-75
2023/07/23 07:51:59;;;;;;;7.25;2.95;;;;;;;24.09;82.71;99824.41;5230283;28;20397;-75
2023/07/23 07:54:29;;;;;;;4.93;2.55;;;;;;;24.09;82.69;99825.25;5230434;28;20116;-75
2023/07/23 07:57:00;;;;;;;4.25;2.30;;;;;;;24.56;75.72;99825.69;5236555;28;20192;-75
2023/07/23 07:59:31;;;;;;;4.05;2.50;;;;;;;24.84;75.60;99825.28;5234018;28;20393;-74
2023/07/23 08:02:02;;;;;;;4.40;2.70;;;;;;;24.88;75.58;99829.28;5232072;28;20025;-75
2023/07/23 08:04:32;;;;;;;5.70;2.85;;;;;;;23.51;78.40;99831.31;5236305;28;20068;-73
2023/07/23 08:07:03;;;;;;;6.25;2.50;;;;;;;23.14;77.19;99830.59;5227998;28;20037;-75
2023/07/23 08:09:34;;;;;;;4.32;2.28;;;;;;;23.47;79.38;99824.56;5232135;28;20033;-74
2023/07/23 08:12:06;;;;;;;4.53;2.70;;;;;;;23.83;79.31;99821.72;5230307;28;20099;-75
2023/07/23 08:14:37;;;;;;;4.05;2.22;;;;;;;24.01;81.01;99822.50;5230451;28;20028;-73
2023/07/23 08:17:08;;;;;;;4.90;2.63;;;;;;;23.96;81.44;99819.50;5209983;28;20025;-74
2023/07/23 08:19:39;;;;;;;4.38;2.28;;;;;;;23.92;80.91;99823.47;5226670;28;20093;-74
2023/07/23 08:22:10;;;;;;;4.65;2.40;;;;;;;24.27;80.17;99822.50;5230551;28;20593;-75
2023/07/23 08:24:40;;;;;;;4.50;2.22;;;;;;;24.54;74.11;99819.66;5231596;28;20067;-74
2023/07/23 08:27:13;;;;;;;3.45;2.45;;;;;;;24.40;73.05;99813.03;5231684;28;20040;-74
2023/07/23 08:29:45;;;;;;;4.20;2.25;;;;;;;24.18;72.02;99812.78;5230371;28;20532;-74
2023/07/23 08:32:17;;;;;;;4.22;2.20;;;;;;;23.88;70.96;99813.25;5232537;28;20025;-74
2023/07/23 08:34:48;;;;;;;4.30;2.35;;;;;;;24.08;72.37;99812.88;5215130;28;20068;-72
2023/07/23 08:37:18;;;;;;;3.90;2.22;;;;;;;23.96;72.03;99811.47;5229635;28;20064;-74
2023/07/23 08:39:49;;;;;;;4.63;2.35;;;;;;;24.03;72.78;99812.50;5229607;28;20557;-73
2023/07/23 08:42:43;;;;;;;3.47;2.13;;;;;;;24.00;72.08;99802.16;5231944;28;20429;-75
2023/07/23 08:45:51;;;;;;;3.88;1.95;;;;;;;23.77;71.98;99806.31;5211813;28;20052;-72
2023/07/23 08:48:22;;;;;;;6.88;2.42;;;;;;;24.28;73.52;99811.66;5236252;28;20032;-73
2023/07/23 08:50:52;;;;;;;3.67;2.35;;;;;;;24.23;71.88;99805.94;5234215;28;20096;-72
2023/07/23 08:53:23;;;;;;;3.65;2.00;;;;;;;23.96;72.50;99800.81;5235563;28;20492;-74
2023/07/23 08:55:54;;;;;;;3.83;2.20;;;;;;;24.04;73.88;99792.81;5230515;28;20384;-74
2023/07/23 08:58:24;;;;;;;2.85;1.80;;;;;;;24.33;71.21;99800.47;5233984;28;20024;-74
2023/07/23 09:00:55;;;;;;;3.97;2.00;;;;;;;24.32;70.89;99788.97;5232270;28;20036;-74
2023/07/23 09:03:26;;;;;;;4.60;2.30;;;;;;;24.66;72.76;99795.16;5232725;28;20123;-73
2023/07/23 09:05:57;;;;;;;4.80;1.98;;;;;;;24.81;70.19;99790.84;5226264;28;20063;-75
2023/07/23 09:08:27;;;;;;;4.28;2.00;;;;;;;25.93;69.05;99788.25;5232179;28;20025;-73
2023/07/23 09:10:57;;;;;;;3.40;2.10;;;;;;;26.44;63.60;99790.44;5211090;28;20546;-74
2023/07/23 09:13:35;;;;;;;6.80;2.37;;;;;;;27.33;63.17;99779.91;5233927;28;20271;-73
2023/07/23 09:16:06;;;;;;;4.30;2.33;;;;;;;26.09;64.12;99781.03;5232230;28;20282;-74
2023/07/23 09:18:40;;;;;;;4.00;2.30;;;;;;;25.54;67.22;99788.13;5214346;28;20031;-74
2023/07/23 09:21:10;;;;;;;4.68;2.03;;;;;;;25.84;65.29;99778.53;5231981;28;20514;-75
2023/07/23 09:23:41;;;;;;;7.13;2.10;;;;;;;24.89;65.13;99790.84;5233361;28;20032;-74
2023/07/23 09:26:11;;;;;;;3.80;2.07;;;;;;;25.19;67.88;99784.91;5231317;28;21018;-74
2023/07/23 09:28:41;;;;;;;3.80;2.03;;;;;;;25.69;69.00;99782.91;5232443;28;20294;-73
2023/07/23 09:31:12;;;;;;;5.60;2.10;;;;;;;25.31;66.77;99780.94;5213574;28;20036;-74
2023/07/23 09:33:42;;;;;;;3.58;1.90;;;;;;;24.79;68.65;99784.84;5209291;28;20102;-74
2023/07/23 09:36:12;;;;;;;3.67;1.83;;;;;;;24.22;66.82;99785.56;5224229;28;20621;-74
2023/07/23 09:38:52;;;;;;;6.30;2.03;;;;;;;24.38;67.30;99792.84;5229006;28;20287;-74
2023/07/23 09:41:25;;;;;;;3.80;2.05;;;;;;;24.33;69.51;99782.63;5231322;28;20059;-73
2023/07/23 09:44:05;;;;;;;3.92;2.15;;;;;;;24.05;69.21;99791.00;5229608;28;20128;-73
2023/07/23 09:46:36;;;;;;;3.03;1.83;;;;;;;24.10;69.38;99784.19;5233793;28;20032;-73
2023/07/23 09:49:07;;;;;;;4.90;2.00;;;;;;;24.18;69.65;99791.41;5208983;28;20051;-74
2023/07/23 09:51:37;;;;;;;2.70;1.67;;;;;;;24.30;68.16;99795.47;5233594;28;20612;-73
2023/07/23 09:54:08;;;;;;;3.08;1.90;;;;;;;23.92;67.59;99790.59;5228635;28;20291;-73
2023/07/23 09:56:39;;;;;;;4.47;1.70;;;;;;;23.79;68.92;99800.81;5230206;28;20024;-73
2023/07/23 09:59:11;;;;;;;2.90;1.58;;;;;;;23.83;66.84;99780.84;5230013;28;20760;-73
2023/07/23 10:01:42;;;;;;;3.53;1.70;;;;;;;23.90;65.36;99781.91;5231491;28;20040;-73
2023/07/23 10:04:15;;;;;;;3.83;1.92;;;;;;;23.74;66.57;99777.25;5230428;28;20043;-74
2023/07/23 10:06:48;;;;;;;3.65;1.70;;;;;;;23.82;64.59;99774.69;5224261;28;20513;-74
2023/07/23 10:09:18;;;;;;;2.83;1.63;;;;;;;23.93;67.04;99771.75;5210414;28;20094;-74
2023/07/23 10:11:49;;;;;;;5.50;1.60;;;;;;;23.83;66.21;99772.81;5226664;28;20615;-71
2023/07/23 10:14:20;;;;;;;5.27;1.90;;;;;;;23.96;67.23;99770.56;5230632;28;20044;-73
2023/07/23 10:16:53;;;;;;;4.80;1.80;;;;;;;24.08;66.65;99766.66;5230106;28;20279;-73
2023/07/23 10:19:23;;;;;;;3.75;1.63;;;;;;;24.23;68.82;99765.06;5230640;28;20044;-73
2023/07/23 10:21:54;;;;;;;2.85;1.80;;;;;;;24.48;65.48;99754.31;5229199;28;20570;-72
2023/07/23 10:24:37;;;;;;;5.80;1.80;;;;;;;24.60;64.97;99762.88;5230136;28;20082;-74
2023/07/23 10:27:13;;;;;;;4.72;1.60;;;;;;;24.90;65.52;99752.41;5225833;28;20028;-74
2023/07/23 10:30:17;;;;;;;2.53;1.63;;;;;;;25.06;63.55;99758.63;5223673;28;20075;-72
2023/07/23 10:33:10;;;;;;;3.22;1.60;;;;;;;25.16;63.68;99750.44;5229071;28;20028;-72
2023/07/23 10:35:53;;;;;;;3.65;1.80;;;;;;;25.28;62.11;99765.22;5226189;28;20624;-74
2023/07/23 10:38:30;;;;;;;4.03;1.65;;;;;;;25.32;62.83;99755.84;5225320;28;20059;-73
2023/07/23 10:41:01;;;;;;;2.40;1.42;;;;;;;24.91;61.92;99756.75;5209750;28;20033;-74
2023/07/23 10:43:42;;;;;;;2.60;1.65;;;;;;;24.81;63.35;99756.09;5231954;28;20036;-71
2023/07/23 10:46:16;;;;;;;3.88;1.50;;;;;;;24.59;62.59;99754.00;5229251;28;20083;-73
2023/07/23 10:48:51;;;;;;;2.63;1.58;;;;;;;24.76;62.14;99751.22;5229693;28;20417;-72
2023/07/23 10:51:23;;;;;;;6.38;1.70;;;;;;;24.67;62.36;99747.84;5209408;28;20047;-73
2023/07/23 10:54:02;;;;;;;3.15;1.70;;;;;;;24.99;63.61;99746.91;5207000;28;20659;-72
2023/07/23 10:56:36;;;;;;;2.35;1.50;;;;;;;24.96;64.06;99738.41;5228676;28;20051;-71
2023/07/23 10:59:14;;;;;;;6.07;1.65;;;;;;;24.98;63.12;99747.09;5229245;28;20028;-73
2023/07/23 11:01:46;;;;;;;4.05;1.45;;;;;;;24.99;62.71;99740.75;5211977;28;20590;-74
2023/07/23 11:04:26;;;;;;;2.28;1.42;;;;;;;24.84;62.08;99755.75;5209575;28;20044;-74
2023/07/23 11:07:01;;;;;;;4.97;1.55;;;;;;;24.54;60.97;99756.34;5229477;28;20048;-74
2023/07/23 11:09:37;;;;;;;3.38;1.77;;;;;;;24.44;58.92;99755.63;5227350;28;20036;-73
2023/07/23 11:12:09;;;;;;;2.70;1.67;;;;;;;24.19;60.87;99761.03;5211698;28;20822;-73
2023/07/23 11:14:40;;;;;;;3.80;1.50;;;;;;;23.94;61.00;99764.56;5229002;28;20024;-73
2023/07/23 11:17:10;;;;;;;3.77;1.77;;;;;;;23.85;59.96;99768.19;5228383;28;20434;-71
2023/07/23 11:19:45;;;;;;;3.20;1.52;;;;;;;23.93;60.46;99773.56;5231778;28;20336;-73
2023/07/23 11:22:16;;;;;;;3.15;1.40;;;;;;;23.79;60.93;99772.28;5210614;28;20048;-73
2023/07/23 11:24:46;;;;;;;3.50;1.48;;;;;;;23.81;62.05;99780.13;5210801;28;20036;-73
2023/07/23 11:27:17;;;;;;;3.47;1.60;;;;;;;23.87;63.33;99782.22;5229332;28;20044;-73
2023/07/23 11:29:47;;;;;;;2.67;1.60;;;;;;;23.77;62.58;99790.31;5231611;28;20355;-73
2023/07/23 11:32:18;;;;;;;3.13;1.80;;;;;;;23.60;62.33;99785.84;5230571;28;20514;-73
2023/07/23 11:34:48;;;;;;;6.40;1.83;;;;;;;23.53;62.84;99775.94;5226630;28;20052;-70
2023/07/23 11:37:21;;;;;;;7.20;1.95;;;;;;;23.51;61.61;99778.75;5228216;28;20090;-74
2023/07/23 11:39:51;;;;;;;2.85;1.60;;;;;;;23.41;63.91;99786.03;5233772;28;20143;-73
2023/07/23 11:42:22;;;;;;;3.83;1.70;;;;;;;23.45;62.97;99787.41;5233595;28;20889;-72
2023/07/23 11:45:02;;;;;;;7.20;1.58;;;;;;;23.31;61.99;99784.41;5230318;28;20425;-73